Beaver Dam, WI

6:44 AM CST on December 28, 2014 (GMT -0600)
Fond du Lac County | Change Station
CLOSE
Current Station
Airport
Location: Fond du Lac,
Elevation: 807 ft
Nearby Weather Stations

Elev 807 ft 43.77 °N, 88.49 °W | Updated 51 minutes ago

Clear
Clear
20 °F
Feels Like 12 °F
N
6
Wind Variable Wind from WSW

Today
High -- | Low -- °F
--% Chance of Precip.
Yesterday
High -- | Low -- °F
Precip. -- in
7:27 AM 4:26 PM
Waxing Crescent, 47% visible
Pressure 30.14 in
Visibility 10.0 miles
Clouds Clear
Windchill 12 °F
Dew Point 14 °F
Humidity 78%
Rainfall 0.00 in
Snow Depth Not available.
UV 0 out of 12
Pollen .10 out of 12
Air Quality Not available.
Flu Activity Not available.
METAR KFLD 281153Z AUTO 25005KT 10SM CLR M07/M10 A3010 RMK AO2 SLP206 70004 T10671100 11044 21067 53003

More Conditions Fewer Conditions

Pressure 30.14 in
Visibility 10.0 miles
Clouds Clear
Windchill 12 °F
Dew Point 14 °F
Humidity 78%
Rainfall 0.00 in
Snow Depth Not available.
UV 0 out of 12
Pollen .10 out of 12
Air Quality Not available.
Flu Activity Not available.
METAR KFLD 281153Z AUTO 25005KT 10SM CLR M07/M10 A3010 RMK AO2 SLP206 70004 T10671100 11044 21067 53003

More Conditions Fewer Conditions

10-Day Weather Forecast

Almanac

Astronomy

Dec. 28, 2014 Rise Set
Actual Time
Civil Twilight
Nautical Twilight
Astronomical Twilight
Moon
Length of Visible Light
Length of Day
Tomorrow will be .
, % of the Moon is Illuminated

Today's Extremes

State Highs State Lows

Community

WunderPhotos

Upload Photos

1,781,249 photos uploaded!

WunderBlogs® & News

Nearby

Air Quality

  Air Quality AQ Index Pollutant
Not available.

Snow Depth

Station Depth Elevation

Earthquake Activity

City Distance Mag. Time & Date
Minimum magnitude displayed is 2.5.

Coastal Water Temperatures

Place Temperature

Nearby Weather Stations